Tiempo atmosférico en la estación meteorológica de Valle de Hecho, Hecho, Huesca (855 m.)



Fecha
DESCASC
Temp. máxima en grados centígrados (hora)
DESCASC
Temp. mínima en grados centígrados (hora)
DESCASC
Temp. media en grados centígrados
DESCASC
Racha de viento máxima en m/sg (hora)
DESCASC
Velocidad máxima media en intervalos de 10 minutos(hora)
DESCASC
Precipitaciones diarias en mm
DESCASC
Precipitaciones de 00:00 a 06:00 en mm
DESCASC
Precipitaciones de 06:00 a 12:00 en mm
DESCASC
Precipitaciones de 12:00 a 18:00 en mm
DESCASC
Precipitaciones de 18:00 a 24:00 en mm
DESCASC
05-04-2020 16 (16:10) 1.4 (08:30) 8.7 11.67 (14:10) 6.94 (14:10) 0 0 0 0 0
04-04-2020 18 (16:20) -1.2 (08:00) 8.4 11.39 (18:20) 5.83 (18:20) 0 0 0 0 0
03-04-2020 15.3 (16:50) -0.8 (06:30) 7.3 13.33 (00:10) 6.11 (00:20) 0 0 0 0 0
02-04-2020 11.7 (13:50) 4.7 (00:00) 8.2 14.17 (23:40) 7.5 (14:00) 0.4 0.4 0 0 0
01-04-2020 10.1 (13:10) 4 (00:00) 7.1 5.56 (15:10) 2.78 (14:30) 6 0.4 0 2.8 2.8
31-03-2020 9 (15:10) -0.4 (00:00) 4.3 8.06 (15:50) 4.17 (15:50) 12.6 3.8 6 1.4 1.4
30-03-2020 7.3 (16:20) 0.2 (00:00) 3.8 14.72 (08:50) 6.39 (07:00) 0 0 0 0 0
29-03-2020 12.7 (14:10) -1.1 (-00:0) 5.8 16.11 (16:40) 7.5 (16:30) 0 0 0 0 0
28-03-2020 15.6 (14:10) -1.1 (-00:0) 7.3 8.33 (20:50) 3.89 (20:20) 0 0 0 0 0
27-03-2020 12.9 (16:00) -4.1 (-00:0) 4.4 8.89 (21:20) 3.89 (21:10) 0 0 0 0 0
26-03-2020 7.7 (15:20) -0.7 (-00:0) 3.5 13.33 (06:30) 8.33 (11:30) 0.2 0 0.2 0 0
25-03-2020 10.7 (13:40) 0.1 (00:00) 5.4 8.33 (11:30) 3.33 (14:00) 2 0 0.2 1.8 0
24-03-2020 14.5 (17:00) 4.5 (00:00) 9.5 6.39 (14:40) 3.61 (16:00) 0 0 0 0 0
23-03-2020 14.4 (15:50) 6.1 (00:00) 10.2 8.61 (16:10) 5 (16:10) 6.8 2.8 0 1.6 2.4
22-03-2020 15.6 (14:30) 3.9 (07:00) 9.8 8.61 (14:00) 4.17 (14:10) 10.6 0 0 0 10.6
21-03-2020 15.8 (16:30) 0.6 (00:00) 8.2 6.11 (13:40) 3.33 (17:20) 0 0 0 0 0
20-03-2020 15.7 (13:20) 1.6 (00:00) 8.6 10.56 (14:30) 5 (12:20) 0 0 0 0 0
19-03-2020 17.9 (14:20) 4.9 (00:00) 11.4 8.89 (14:20) 4.44 (14:30) 0 0 0 0 0
18-03-2020 15.9 (16:20) 3.3 (00:00) 9.6 5 (14:30) 2.78 (14:30) 0 0 0 0 0
17-03-2020 12.5 (17:20) 5.8 (00:00) 9.2 2.5 (22:20) 1.67 (22:20) 0 0 0 0 0
16-03-2020 8.5 (16:30) 4.6 (00:00) 6.5 8.33 (03:00) 3.89 (02:50) 35.2 27.4 7.6 0.2 0
15-03-2020 18.1 (12:50) -0.7 (-00:0) 8.7 20.28 (17:00) 8.89 (17:00) 20.4 0 0 3.2 17.2
14-03-2020 17 (15:30) 2.6 (00:00) 9.8 7.22 (14:30) 4.17 (14:30) 0 0 0 0 0
13-03-2020 13.3 (00:10) 7.1 (23:40) 10.2 8.89 (00:20) 4.72 (00:40) 0 0 0 0 0
12-03-2020 23.7 (13:50) 5.4 (00:00) 14.6 9.17 (23:00) 6.39 (23:00) 0 0 0 0 0
11-03-2020 23 (15:40) 1.2 (00:00) 12.1 5.56 (15:10) 3.06 (15:10) 0 0 0 0 0

Gráficas

Temp. máximas Temp. mínimas Temp. medias Precipitaciones Rachas de viento máximas Velocidades máximas media en intervalos de 10 minutos

Datos horarios

Fecha y hora oficial Temperatura (ºC) Velocidad del viento (km/h) Dirección del viento Racha (km/h) Dirección de racha Precipitación (mm) Presión (hPa) Tendencia (hPa) Humedad (%)
2020-04-09 23:00:00 11.3 0 Calma 6 Nordeste 0 -- -- 81
2020-04-09 22:00:00 12.6 0 Calma 6 Sudoeste 0 -- -- 76
2020-04-09 21:00:00 13.8 0 Calma 16 Sudoeste 0 -- -- 70
2020-04-09 20:00:00 14.8 9 Sudoeste 20 Sudoeste 0 -- -- 64
2020-04-09 19:00:00 17 10 Sudoeste 30 Este 0 -- -- 55
2020-04-09 18:00:00 18.8 15 Este 27 Sur 0 -- -- 46
2020-04-09 17:00:00 19.9 13 Sudoeste 27 Sudoeste 0 -- -- 43
2020-04-09 16:00:00 19.9 10 Sur 26 Sur 0 -- -- 46
2020-04-09 15:00:00 19.6 8 Sur 29 Sudoeste 0 -- -- 51
2020-04-09 14:00:00 18.9 12 Sudoeste 24 Sur 0 -- -- 54
2020-04-09 13:00:00 18 10 Sudoeste 22 Sudoeste 0 -- -- 55
2020-04-09 12:00:00 15.8 6 Sudoeste 11 Sudoeste 0 -- -- 63
2020-04-09 11:00:00 12 4 Este 8 Nordeste 0 -- -- 83
2020-04-09 10:00:00 7.8 3 Este 5 Este 0 -- -- 99
2020-04-09 09:00:00 4.2 0 Calma -- -- 0 -- -- 99
2020-04-09 08:00:00 2.8 0 Calma -- -- 0 -- -- 97
2020-04-09 07:00:00 3 0 Calma -- -- 0 -- -- 97
2020-04-09 06:00:00 3.5 0 Calma -- -- 0 -- -- 97
2020-04-09 05:00:00 4.1 0 Calma 4 Oeste 0.2 -- -- 97
2020-04-09 04:00:00 4.7 2 Sudeste 4 Sudeste 0 -- -- 97
2020-04-09 03:00:00 5.1 3 Oeste 4 Oeste 0 -- -- 97
2020-04-09 02:00:00 5.7 0 Calma 4 Noroeste 0 -- -- 96
2020-04-09 01:00:00 6.2 2 Noroeste 4 Este 0 -- -- 95
2020-04-09 00:00:00 6.9 0 Calma 5 Sudoeste 0.2 -- -- 95
2020-04-08 23:00:00 7.8 2 Nordeste 5 Este 0 -- -- 94
2020-04-08 22:00:00 8.9 0 Calma 7 Nordeste 0 -- -- 93
2020-04-08 21:00:00 9.8 3 Oeste 10 Nordeste 1.2 -- -- 91
2020-04-08 20:00:00 10.3 2 Oeste 17 Noroeste 2.2 -- -- 88
2020-04-08 19:00:00 11.6 6 Noroeste 27 Norte 0.4 -- -- 78
2020-04-08 18:00:00 13.6 12 Norte 34 Norte 0 -- -- 65
2020-04-08 17:00:00 18.2 8 Sur 20 Sudoeste 0 -- -- 56
2020-04-08 16:00:00 17.8 10 Sur 24 Sudoeste 0 -- -- 55
2020-04-08 15:00:00 16.8 9 Sur 17 Sur 0.2 -- -- 61
2020-04-08 14:00:00 15.6 6 Sur 18 Sur 0 -- -- 62
2020-04-08 13:00:00 15.4 6 Sudoeste 16 Sur 0 -- -- 67
2020-04-08 12:00:00 14.6 8 Sudoeste 14 Sudoeste 0 -- -- 70
2020-04-08 11:00:00 10.7 2 Este 5 Nordeste 0 -- -- 98
2020-04-08 10:00:00 7.6 0 Calma 4 Sudoeste 0 -- -- 98
2020-04-08 09:00:00 6.1 2 Este 5 Noroeste 0 -- -- 98
2020-04-08 08:00:00 6 0 Calma 5 Nordeste 0 -- -- 98
2020-04-08 07:00:00 6.2 2 Oeste 5 Noroeste 0 -- -- 97
2020-04-08 06:00:00 6.5 0 Calma 4 Nordeste 0 -- -- 97
2020-04-08 05:00:00 6.9 0 Calma 5 Noroeste 0 -- -- 97
2020-04-08 04:00:00 7 0 Calma 8 Oeste 0 -- -- 97
2020-04-08 03:00:00 7.4 2 Norte 5 Oeste 0 -- -- 97
2020-04-08 02:00:00 7.5 2 Sur 6 Noroeste 0 -- -- 97
2020-04-08 01:00:00 7.3 4 Noroeste 6 Sudoeste 0 -- -- 97
2020-04-08 00:00:00 7.4 6 Sudoeste 9 Sudoeste 0 -- -- 95
2020-04-07 23:00:00 8.3 3 Oeste 5 Noroeste 0 -- -- 93
2020-04-07 22:00:00 9.8 2 Nordeste 6 Oeste 0 -- -- 91
2020-04-07 21:00:00 11 0 Calma 9 Sudoeste 0 -- -- 87
2020-04-07 20:00:00 11.4 6 Sudoeste 13 Sudoeste 0 -- -- 85
2020-04-07 19:00:00 11.3 5 Sur 13 Sudoeste 0 -- -- 88
2020-04-07 18:00:00 11.3 8 Sudoeste 19 Sudoeste 0 -- -- 91
2020-04-07 17:00:00 11.4 13 Sudoeste 22 Sudoeste 0.6 -- -- 91
2020-04-07 16:00:00 11 8 Sudoeste 22 Sudoeste 0.8 -- -- 92
2020-04-07 15:00:00 11.1 12 Sudoeste 20 Sudoeste 0.6 -- -- 92
2020-04-07 14:00:00 10.7 9 Sudoeste 15 Sudoeste 1.2 -- -- 92
2020-04-07 13:00:00 10.7 7 Sur 22 Sudoeste 1.4 -- -- 92
2020-04-07 12:00:00 11.2 10 Sudoeste 17 Sudoeste 0.4 -- -- 90
2020-04-07 11:00:00 10.5 6 Sudoeste 10 Oeste 0 -- -- 96
2020-04-07 10:00:00 9.7 0 Calma 5 Sudoeste 0 -- -- 97
2020-04-07 09:00:00 8.9 0 Calma 5 Oeste 0 -- -- 97
2020-04-07 08:00:00 8.8 0 Calma 3 Sudoeste 0 -- -- 97
2020-04-07 07:00:00 8.9 0 Calma 3 Nordeste 0 -- -- 97
2020-04-07 06:00:00 9 0 Calma 3 Noroeste 0 -- -- 97
2020-04-07 05:00:00 9 0 Calma 5 Nordeste 0 -- -- 96
2020-04-07 04:00:00 9.1 0 Calma 9 Noroeste 0.2 -- -- 96
2020-04-07 03:00:00 9.3 0 Calma 6 Nordeste 0.6 -- -- 96
2020-04-07 02:00:00 9.4 3 Norte 6 Nordeste 0 -- -- 95
2020-04-07 01:00:00 9.6 0 Calma 7 Norte 0 -- -- 94
2020-04-07 00:00:00 10 3 Norte 8 Norte 0 -- -- 95
2020-04-06 23:00:00 10.1 2 Noroeste 6 Sudoeste 0 -- -- 94
2020-04-06 22:00:00 10.5 3 Nordeste 7 Nordeste 0.4 -- -- 92
2020-04-06 21:00:00 11.5 2 Sur 15 Sudoeste 0.2 -- -- 85
2020-04-06 20:00:00 12.2 8 Sudoeste 21 Sudoeste 0 -- -- 79
2020-04-06 19:00:00 13.2 5 Sur 15 Sur 0 -- -- 75
2020-04-06 18:00:00 13.2 5 Sudoeste 13 Sudoeste 0 -- -- 78
2020-04-06 17:00:00 13.1 5 Sur 20 Sudeste 0 -- -- 75
2020-04-06 16:00:00 12.8 8 Sudoeste 17 Sudoeste 0 -- -- 79
2020-04-06 15:00:00 12.3 9 Sudoeste 17 Sudoeste 0 -- -- 80
2020-04-06 14:00:00 11.5 2 Sudoeste 5 Sudeste 0 -- -- 90
2020-04-06 13:00:00 10.2 2 Este 5 Este 0.2 -- -- 91
2020-04-06 12:00:00 9.5 2 Sur 4 Sudoeste 0 -- -- 91
2020-04-06 11:00:00 8.8 0 Calma 5 Nordeste 0.2 -- -- 94
2020-04-06 10:00:00 8.1 2 Sudoeste 9 Oeste 0.2 -- -- 95
2020-04-06 09:00:00 7.5 4 Nordeste 6 Nordeste 0.8 -- -- 95
2020-04-06 08:00:00 7.3 0 Calma 7 Norte 1.6 -- -- 94
2020-04-06 07:00:00 7.1 0 Calma 6 Noroeste 2 -- -- 93
2020-04-06 06:00:00 7.4 2 Noroeste 5 Noroeste 1.8 -- -- 91
2020-04-06 05:00:00 7.8 0 Calma 6 Oeste 0 -- -- 86
2020-04-06 04:00:00 7.9 0 Calma 5 Sudoeste 0 -- -- 81
2020-04-06 03:00:00 7.9 3 Noroeste 5 Sudoeste 0 -- -- 77
2020-04-06 02:00:00 8.1 2 Nordeste 5 Oeste 0 -- -- 75
2020-04-06 01:00:00 9.1 2 Norte 5 Noroeste 0 -- -- 66
2020-04-06 00:00:00 9.5 0 Calma 13 Oeste 0 -- -- 66
2020-04-05 23:00:00 11.2 7 Oeste 14 Sudoeste 0 -- -- 57
2020-04-05 22:00:00 12 7 Sudoeste 23 Sudoeste 0 -- -- 57
2020-04-05 21:00:00 12.8 6 Sudoeste 15 Sur 0 -- -- 54
2020-04-05 20:00:00 14.3 11 Sur 31 Sudoeste 0 -- -- 47
2020-04-05 19:00:00 15.6 12 Sudeste 29 Sur 0 -- -- 41
2020-04-05 18:00:00 15.7 13 Sudoeste 34 Sudoeste 0 -- -- 45
2020-04-05 17:00:00 15.8 17 Sudoeste 32 Sudoeste 0 -- -- 43
2020-04-05 16:00:00 15.9 16 Sudoeste 32 Sudoeste 0 -- -- 42
2020-04-05 15:00:00 15.7 20 Sudoeste 42 Sudoeste 0 -- -- 39
2020-04-05 14:00:00 15.3 24 Sudoeste 42 Sur 0 -- -- 37
2020-04-05 13:00:00 14.9 15 Sur 39 Sudoeste 0 -- -- 39
2020-04-05 12:00:00 13.3 16 Sur 36 Sudoeste 0 -- -- 44
2020-04-05 11:00:00 12.1 14 Sudoeste 31 Sur 0 -- -- 54
2020-04-05 10:00:00 7.2 3 Sudeste 9 Norte 0 -- -- 76
2020-04-05 09:00:00 2.8 3 Oeste 8 Norte 0 -- -- 90
2020-04-05 08:00:00 1.6 2 Norte 5 Nordeste 0 -- -- 88
2020-04-05 07:00:00 2.4 2 Norte 8 Nordeste 0 -- -- 86
2020-04-05 06:00:00 3.8 3 Noroeste 7 Noroeste 0 -- -- 82
2020-04-05 05:00:00 5.3 8 Nordeste 10 Nordeste 0 -- -- 77
2020-04-05 04:00:00 6.1 3 Nordeste 24 Sur 0 -- -- 76
2020-04-05 03:00:00 8.2 10 Sur 22 Sudoeste 0 -- -- 69
2020-04-05 02:00:00 8.2 10 Sudoeste 19 Sur 0 -- -- 71
2020-04-05 01:00:00 8.7 6 Sur 17 Sur 0 -- -- 71
2020-04-05 00:00:00 8.8 4 Sudoeste 13 Sudoeste 0 -- -- 72
2020-04-04 23:00:00 8.9 3 Sur 13 Sudoeste 0 -- -- 71
2020-04-04 22:00:00 9.7 5 Sudoeste 12 Sudoeste 0 -- -- 67
2020-04-04 21:00:00 11.3 5 Sudoeste 18 Sudoeste 0 -- -- 59
2020-04-04 20:00:00 13.3 11 Sudoeste 32 Sudoeste 0 -- -- 53
2020-04-04 19:00:00 15 15 Sudoeste 41 Sudoeste 0 -- -- 47
2020-04-04 18:00:00 16.6 18 Sudoeste 35 Sudoeste 0 -- -- 44
2020-04-04 17:00:00 17.9 14 Sudoeste 33 Sudoeste 0 -- -- 44
2020-04-04 16:00:00 17.8 18 Sur 37 Sur 0 -- -- 44
2020-04-04 15:00:00 17.3 15 Sudoeste 33 Sur 0 -- -- 47
2020-04-04 14:00:00 16.3 15 Sudoeste 27 Sudoeste 0 -- -- 49
2020-04-04 13:00:00 15.3 12 Sudoeste 26 Sudoeste 0 -- -- 50
2020-04-04 12:00:00 14.2 13 Sudoeste 25 Sudoeste 0 -- -- 49
2020-04-04 11:00:00 9.7 5 Este 8 Nordeste 0 -- -- 65
2020-04-04 10:00:00 4.3 5 Este 8 Este 0 -- -- 87
2020-04-04 09:00:00 0.6 0 Calma 4 Nordeste 0 -- -- 96
2020-04-04 08:00:00 -1.2 0 Calma 4 Sur 0 -- -- 94
2020-04-04 07:00:00 -0.8 0 Calma 4 Oeste 0 -- -- 93
2020-04-04 06:00:00 -0.2 2 Sudoeste 4 Sudoeste 0 -- -- 93
2020-04-04 05:00:00 0.2 0 Calma 4 Sudoeste 0 -- -- 93
2020-04-04 04:00:00 0.7 0 Calma 3 Sudoeste 0 -- -- 92
2020-04-04 03:00:00 1.4 0 Calma 4 Nordeste 0 -- -- 91
2020-04-04 02:00:00 1.8 0 Calma 5 Noroeste 0 -- -- 88
2020-04-04 01:00:00 2.7 0 Calma 4 Sudoeste 0 -- -- 88
2020-04-04 00:00:00 3.8 0 Calma 4 Noroeste 0 -- -- 84
2020-04-03 23:00:00 5.1 0 Calma 6 Sur 0 -- -- 81
2020-04-03 22:00:00 6.7 0 Calma 7 Sudoeste 0 -- -- 75
2020-04-03 21:00:00 9.1 2 Nordeste 10 Noroeste 0 -- -- 64
2020-04-03 20:00:00 11.6 6 Oeste 15 Noroeste 0 -- -- 52
2020-04-03 19:00:00 14.1 8 Noroeste 19 Noroeste 0 -- -- 44
2020-04-03 18:00:00 15.1 8 Sudoeste 30 Sur 0 -- -- 41
2020-04-03 17:00:00 15.1 10 Oeste 25 Oeste 0 -- -- 43
2020-04-03 16:00:00 15 9 Oeste 22 Sur 0 -- -- 40
2020-04-03 15:00:00 14.6 9 Sur 20 Sudoeste 0 -- -- 47
2020-04-03 14:00:00 13.2 5 Sudeste 14 Sur 0 -- -- 44
2020-04-03 13:00:00 11.8 6 Sudeste 16 Nordeste 0 -- -- 40
2020-04-03 12:00:00 10.1 5 Sudeste 13 Sudeste 0 -- -- 48
2020-04-03 11:00:00 8.1 7 Sudoeste 14 Sudoeste 0 -- -- 61
2020-04-03 10:00:00 5 9 Sudoeste 18 Sur 0 -- -- 75
2020-04-03 09:00:00 0.4 8 Sur 19 Sur 0 -- -- 92
2020-04-03 08:00:00 -0.6 8 Sudoeste 20 Sudoeste 0 -- -- 91
2020-04-03 07:00:00 -0.3 9 Sudoeste 22 Sudoeste 0 -- -- 92
2020-04-03 06:00:00 -0.6 6 Sudoeste 16 Sudoeste 0 -- -- 91
2020-04-03 05:00:00 0.1 7 Sudoeste 17 Sudoeste 0 -- -- 88
2020-04-03 04:00:00 1.2 7 Sudoeste 23 Norte 0 -- -- 84
2020-04-03 03:00:00 4.2 11 Nordeste 37 Este 0 -- -- 65
2020-04-03 02:00:00 5.5 15 Norte 39 Nordeste 0 -- -- 57
2020-04-03 01:00:00 5.3 15 Norte 48 Noroeste 0 -- -- 61
2020-04-03 00:00:00 5.7 21 Norte 51 Norte 0 -- -- 64
2020-04-02 23:00:00 6.4 21 Norte 45 Nordeste 0 -- -- 67
2020-04-02 22:00:00 7.9 20 Norte 48 Nordeste 0 -- -- 65
2020-04-02 21:00:00 9 11 Norte 29 Nordeste 0 -- -- 55
2020-04-02 20:00:00 9.1 12 Norte 42 Nordeste 0 -- -- 56
2020-04-02 19:00:00 10 18 Norte 44 Nordeste 0 -- -- 56
2020-04-02 18:00:00 10.4 18 Norte 43 Norte 0 -- -- 58
2020-04-02 17:00:00 11 19 Norte 45 Nordeste 0 -- -- 55
2020-04-02 16:00:00 10.9 17 Norte 42 Nordeste 0 -- -- 55
2020-04-02 15:00:00 10.9 21 Nordeste 46 Nordeste 0 -- -- 56
2020-04-02 14:00:00 11.5 27 Nordeste 46 Nordeste 0 -- -- 51
2020-04-02 13:00:00 10.5 24 Nordeste 49 Nordeste 0 -- -- 54
2020-04-02 12:00:00 10.3 24 Nordeste 44 Nordeste 0 -- -- 62
2020-04-02 11:00:00 8.1 9 Sur 18 Sudoeste 0 -- -- 83
2020-04-02 10:00:00 6.1 9 Sudoeste 16 Sudoeste 0 -- -- 96
2020-04-02 09:00:00 5.2 5 Sudoeste 14 Sudoeste 0 -- -- 96
2020-04-02 08:00:00 4.8 4 Oeste 9 Sudoeste 0 -- -- 96
2020-04-02 07:00:00 5.2 5 Sudoeste 9 Sudoeste 0 -- -- 97
2020-04-02 06:00:00 5.4 3 Sur 7 Sur 0 -- -- 96
2020-04-02 05:00:00 5.4 5 Sudoeste 13 Sudoeste 0.2 -- -- 96
2020-04-02 04:00:00 5.7 4 Sudoeste 10 Sudoeste 0 -- -- 96
2020-04-02 03:00:00 5.8 3 Sudoeste 6 Sudoeste 0.2 -- -- 95
2020-04-02 02:00:00 5.9 3 Sudoeste 9 Sudoeste 0 -- -- 95
2020-04-02 01:00:00 6.2 0 Calma 4 Noroeste 0 -- -- 95
2020-04-02 00:00:00 6.4 0 Calma 6 Norte 0.4 -- -- 94
2020-04-01 23:00:00 6.5 2 Nordeste 6 Norte 0.8 -- -- 94
2020-04-01 22:00:00 6.8 3 Norte 5 Norte 0.8 -- -- 94
2020-04-01 21:00:00 7.1 2 Sudoeste 4 Norte 0.2 -- -- 93
2020-04-01 20:00:00 7.3 4 Norte 7 Sur 0.4 -- -- 88
2020-04-01 19:00:00 8.1 2 Sudoeste 7 Nordeste 0.2 -- -- 90
2020-04-01 18:00:00 7.7 4 Nordeste 8 Sudeste 1.2 -- -- 92
2020-04-01 17:00:00 8.4 0 Calma 10 Sur 1 -- -- 87
2020-04-01 16:00:00 8.5 4 Sur 20 Sur 0.4 -- -- 86
2020-04-01 15:00:00 8.9 10 Sur 19 Sur 0.2 -- -- 82
2020-04-01 14:00:00 10.1 5 Sur 12 Sur 0 -- -- 78
2020-04-01 13:00:00 10 4 Sur 8 Sudoeste 0 -- -- 76
2020-04-01 12:00:00 9.2 3 Sudeste 6 Sudeste 0 -- -- 84
2020-04-01 11:00:00 7.3 0 Calma 7 Sudoeste 0 -- -- 93
2020-04-01 10:00:00 6.4 2 Norte 11 Norte 0 -- -- 95
2020-04-01 09:00:00 4.8 4 Norte 10 Norte 0 -- -- 97
2020-04-01 08:00:00 4.1 2 Noroeste 8 Norte 0 -- -- 96
2020-04-01 07:00:00 4.9 2 Sudoeste 10 Norte 0 -- -- 95
2020-04-01 06:00:00 5.4 2 Noroeste 8 Norte 0 -- -- 95
2020-04-01 05:00:00 5.4 4 Norte 8 Norte 0 -- -- 96
2020-04-01 04:00:00 5.4 0 Calma 5 Oeste 0 -- -- 96
2020-04-01 03:00:00 5.4 2 Nordeste 4 Sudoeste 0 -- -- 96
2020-04-01 02:00:00 5.3 4 Norte 6 Sudoeste 0.4 -- -- 96
2020-04-01 01:00:00 5.4 0 Calma 4 Sudoeste 0 -- -- 95
2020-04-01 00:00:00 5.5 2 Sudoeste 5 Sudoeste 0 -- -- 95
2020-03-31 23:00:00 5.6 3 Noroeste 4 Noroeste 0 -- -- 94
2020-03-31 22:00:00 6 3 Oeste 4 Noroeste 0.2 -- -- 93
2020-03-31 21:00:00 6.6 4 Noroeste 5 Oeste 0.2 -- -- 91
2020-03-31 20:00:00 7.2 4 Sudoeste 8 Sudoeste 0.4 -- -- 91
2020-03-31 19:00:00 7.3 2 Sudoeste 10 Sudoeste 0.6 -- -- 89
2020-03-31 18:00:00 7.3 7 Sudoeste 14 Sudoeste 1 -- -- 87
2020-03-31 17:00:00 7.7 8 Sudoeste 20 Sudoeste 0.2 -- -- 83
2020-03-31 16:00:00 8.8 10 Sur 29 Sudoeste 0 -- -- 78
2020-03-31 15:00:00 8.9 8 Sudoeste 13 Sur 0 -- -- 82
2020-03-31 14:00:00 7 0 Calma 6 Nordeste 0.2 -- -- 87
2020-03-31 13:00:00 5 0 Calma 5 Nordeste 0 -- -- 94
2020-03-31 12:00:00 3 0 Calma 4 Sudeste 0 -- -- 95
2020-03-31 11:00:00 1.4 0 Calma 4 Sudoeste 0 -- -- 95
2020-03-31 10:00:00 0.9 2 Este 5 Noroeste 1 -- -- 95
2020-03-31 09:00:00 0.3 3 Nordeste 4 Nordeste 1.4 -- -- 95
2020-03-31 08:00:00 0.1 0 Calma 4 Sudoeste 1.6 -- -- 95
2020-03-31 07:00:00 -0.1 2 Sudoeste 5 Sudoeste 2 -- -- 95
2020-03-31 06:00:00 -0.3 0 Calma 5 Sudeste 1.6 -- -- 94
2020-03-31 05:00:00 -0.3 2 Norte 5 Noroeste 1.2 -- -- 93
2020-03-31 04:00:00 -0.3 0 Calma 7 Sur 0.4 -- -- 93
2020-03-31 03:00:00 -0.3 3 Sur 6 Sur 0.2 -- -- 91
2020-03-31 02:00:00 -0.3 2 Sur 5 Sudeste 0.4 -- -- 89
2020-03-31 01:00:00 0.4 0 Calma 10 Sudoeste 0 -- -- 83
2020-03-31 00:00:00 1.5 5 Sudeste 9 Sudeste 0 -- -- 64
2020-03-30 23:00:00 1.5 4 Oeste 8 Noroeste 0 -- -- 63
2020-03-30 22:00:00 1.6 4 Oeste 15 Noroeste 0 -- -- 64
2020-03-30 21:00:00 2.1 11 Noroeste 23 Noroeste 0 -- -- 59
2020-03-30 20:00:00 3.2 13 Noroeste 21 Noroeste 0 -- -- 55
2020-03-30 19:00:00 5.4 8 Oeste 28 Oeste 0 -- -- 48
2020-03-30 18:00:00 6.4 9 Oeste 24 Oeste 0 -- -- 41
2020-03-30 17:00:00 7.2 8 Oeste 26 Oeste 0 -- -- 37
2020-03-30 16:00:00 7 11 Oeste 26 Oeste 0 -- -- 39
2020-03-30 15:00:00 6.7 12 Oeste 29 Sudoeste 0 -- -- 39
2020-03-30 14:00:00 6 12 Nordeste 30 Nordeste 0 -- -- 39
2020-03-30 13:00:00 4.6 19 Nordeste 31 Nordeste 0 -- -- 38
2020-03-30 12:00:00 3.9 15 Noroeste 39 Noroeste 0 -- -- 41
2020-03-30 11:00:00 2.8 17 Norte 41 Nordeste 0 -- -- 47
2020-03-30 10:00:00 1.4 16 Norte 53 Nordeste 0 -- -- 51
2020-03-30 09:00:00 0.6 21 Norte 53 Nordeste 0 -- -- 55
2020-03-30 08:00:00 0.2 18 Norte 47 Norte 0 -- -- 61
2020-03-30 07:00:00 1.1 23 Noroeste 49 Noroeste 0 -- -- 61
2020-03-30 06:00:00 2.3 22 Noroeste 39 Noroeste 0 -- -- 59
2020-03-30 05:00:00 3.2 19 Norte 41 Noroeste 0 -- -- 61
2020-03-30 04:00:00 4 15 Noroeste 45 Nordeste 0 -- -- 62
2020-03-30 03:00:00 4.6 18 Noroeste 42 Nordeste 0 -- -- 64
2020-03-30 02:00:00 5.3 19 Noroeste 40 Noroeste 0 -- -- 67
2020-03-30 01:00:00 5.9 17 Noroeste 37 Noroeste 0 -- -- 68
2020-03-30 00:00:00 6.8 18 Noroeste 41 Noroeste 0 -- -- 67
2020-03-29 23:00:00 6.9 17 Norte 50 Nordeste 0 -- -- 70
2020-03-29 22:00:00 7.6 22 Norte 50 Nordeste 0 -- -- 66
2020-03-29 21:00:00 7.7 22 Norte 55 Nordeste 0 -- -- 64
2020-03-29 20:00:00 8.4 19 Norte 47 Norte 0 -- -- 59
2020-03-29 19:00:00 9.7 21 Norte 55 Norte 0 -- -- 50
2020-03-29 18:00:00 10.2 22 Norte 57 Norte 0 -- -- 49
2020-03-29 17:00:00 11.1 21 Norte 58 Nordeste 0 -- -- 48
2020-03-29 16:00:00 12.3 19 Norte 50 Norte 0 -- -- 46
2020-03-29 15:00:00 12.7 19 Norte 50 Nordeste 0 -- -- 45
2020-03-29 14:00:00 12.6 17 Norte 42 Nordeste 0 -- -- 45
2020-03-29 13:00:00 12.4 19 Norte 47 Nordeste 0 -- -- 44
2020-03-29 12:00:00 11.7 22 Nordeste 43 Nordeste 0 -- -- 47
2020-03-29 11:00:00 10.4 21 Nordeste 39 Norte 0 -- -- 50
2020-03-29 10:00:00 4.1 3 Sudeste 11 Sur 0 -- -- 86
2020-03-29 09:00:00 -0.2 3 Oeste 7 Oeste 0 -- -- 95
2020-03-29 08:00:00 -1 0 Calma 4 Sudeste 0 -- -- 93
2020-03-29 07:00:00 -0.6 0 Calma 4 Este 0 -- -- 92
2020-03-29 06:00:00 0 0 Calma 4 Oeste 0 -- -- 92
2020-03-29 05:00:00 0.6 2 Noroeste 4 Oeste 0 -- -- 91
2020-03-29 03:00:00 2.3 0 Calma 3 Sudoeste 0 -- -- 86
2020-03-29 01:00:00 3.2 0 Calma 5 Sudoeste 0 -- -- 84
2020-03-29 00:00:00 4.2 3 Sudoeste 5 Sudoeste 0 -- -- 80
2020-03-28 23:00:00 5.9 4 Sudoeste 7 Sur 0 -- -- 74
2020-03-28 22:00:00 8.9 0 Calma 23 Noroeste 0 -- -- 60
2020-03-28 21:00:00 9.6 12 Noroeste 30 Noroeste 0 -- -- 58
2020-03-28 20:00:00 10.3 12 Noroeste 28 Noroeste 0 -- -- 55
2020-03-28 19:00:00 12.2 11 Norte 25 Noroeste 0 -- -- 50
2020-03-28 18:00:00 14.3 13 Oeste 24 Oeste 0 -- -- 44
2020-03-28 17:00:00 14.8 10 Oeste 23 Sudoeste 0 -- -- 45
2020-03-28 16:00:00 13.9 9 Noroeste 21 Noroeste 0 -- -- 44
2020-03-28 15:00:00 14.3 4 Oeste 21 Sudoeste 0 -- -- 41
2020-03-28 14:00:00 14.8 6 Sur 17 Sudoeste 0 -- -- 41
2020-03-28 13:00:00 14.6 9 Sur 25 Sudoeste 0 -- -- 43
2020-03-28 12:00:00 14.1 7 Sur 18 Sudoeste 0 -- -- 45
2020-03-28 11:00:00 11.9 6 Sur 12 Sur 0 -- -- 48
2020-03-28 10:00:00 7.9 3 Sur 8 Este 0 -- -- 64
2020-03-28 09:00:00 3.2 2 Este 5 Este 0 -- -- 81
2020-03-28 08:00:00 -0.6 0 Calma 0 Calma 0 -- -- 94
2020-03-28 07:00:00 -1 0 Calma 2 Sudoeste 0 -- -- 92
2020-03-28 06:00:00 -0.6 0 Calma 4 Nordeste 0 -- -- 92
2020-03-28 05:00:00 -0.7 0 Calma 4 Nordeste 0 -- -- 92
2020-03-28 04:00:00 -0.5 3 Oeste 5 Oeste 0 -- -- 91
2020-03-28 03:00:00 0.1 0 Calma 3 Oeste 0 -- -- 89
2020-03-28 02:00:00 0.6 0 Calma 4 Sudoeste 0 -- -- 85
2020-03-28 01:00:00 1.4 0 Calma 5 Oeste 0 -- -- 83
2020-03-28 00:00:00 2.6 0 Calma 4 Nordeste 0 -- -- 78
2020-03-27 23:00:00 4.6 2 Sudoeste 19 Nordeste 0 -- -- 69
2020-03-27 22:00:00 7.2 11 Norte 32 Norte 0 -- -- 56
2020-03-27 21:00:00 7.4 13 Norte 31 Noroeste 0 -- -- 56
2020-03-27 20:00:00 7.9 11 Noroeste 26 Noroeste 0 -- -- 53
2020-03-27 19:00:00 9.4 10 Norte 20 Norte 0 -- -- 48
2020-03-27 18:00:00 10.8 5 Noroeste 18 Sudoeste 0 -- -- 45
2020-03-27 17:00:00 12.6 11 Sur 22 Sudoeste 0 -- -- 37
2020-03-27 16:00:00 12.9 7 Sudoeste 19 Sudoeste 0 -- -- 34
2020-03-27 15:00:00 12.1 9 Sur 21 Sudoeste 0 -- -- 38
2020-03-27 14:00:00 11.5 10 Sur 24 Sur 0 -- -- 39
2020-03-27 13:00:00 11.2 9 Sur 20 Sudoeste 0 -- -- 40
2020-03-27 12:00:00 10 6 Sudoeste 14 Sudoeste 0 -- -- 43
2020-03-27 11:00:00 7.5 6 Sudeste 12 Sur 0 -- -- 50
2020-03-27 10:00:00 3.8 3 Este 6 Este 0 -- -- 61
2020-03-27 09:00:00 -0.1 3 Este 6 Nordeste 0 -- -- 87
2020-03-27 08:00:00 -3.4 0 Calma 2 Sur 0 -- -- 94
2020-03-27 07:00:00 -3.8 0 Calma 3 Sudoeste 0 -- -- 92
2020-03-27 06:00:00 -3.7 0 Calma 3 Noroeste 0 -- -- 90
2020-03-27 05:00:00 -3.5 0 Calma 2 Nordeste 0 -- -- 91
2020-03-27 04:00:00 -2.9 0 Calma 4 Noroeste 0 -- -- 90
2020-03-27 03:00:00 -2.6 2 Noroeste 4 Noroeste 0 -- -- 88
2020-03-27 02:00:00 -2.2 0 Calma 3 Noroeste 0 -- -- 86
2020-03-27 01:00:00 -1.8 0 Calma 4 Nordeste 0 -- -- 84
2020-03-27 00:00:00 -0.6 0 Calma 5 Nordeste 0 -- -- 78
2020-03-26 23:00:00 0.5 0 Calma 8 Noroeste 0 -- -- 73
2020-03-26 22:00:00 1.8 0 Calma 27 Nordeste 0 -- -- 64
2020-03-26 21:00:00 3.4 15 Nordeste 34 Nordeste 0 -- -- 56
2020-03-26 20:00:00 3.7 15 Norte 38 Nordeste 0 -- -- 54
2020-03-26 19:00:00 4.7 15 Norte 41 Norte 0 -- -- 49
2020-03-26 18:00:00 5.9 14 Norte 37 Nordeste 0 -- -- 40
2020-03-26 17:00:00 6.7 16 Norte 37 Norte 0 -- -- 38
2020-03-26 16:00:00 7.5 18 Nordeste 35 Nordeste 0 -- -- 32
2020-03-26 15:00:00 7.6 21 Nordeste 40 Nordeste 0 -- -- 33
2020-03-26 14:00:00 7.1 23 Nordeste 41 Nordeste 0 -- -- 30
2020-03-26 13:00:00 6.4 27 Nordeste 48 Nordeste 0 -- -- 34
2020-03-26 12:00:00 6.2 26 Nordeste 42 Nordeste 0 -- -- 39
2020-03-26 11:00:00 5.6 26 Nordeste 36 Nordeste 0 -- -- 41
2020-03-26 10:00:00 5.4 17 Nordeste 34 Nordeste 0 -- -- 42
2020-03-26 09:00:00 5.4 8 Nordeste 41 Noroeste 0 -- -- 43
2020-03-26 08:00:00 4.3 11 Noroeste 39 Noroeste 0 -- -- 53
2020-03-26 07:00:00 4 18 Noroeste 48 Norte 0.2 -- -- 53
2020-03-26 06:00:00 2.8 16 Noroeste 33 Noroeste 0 -- -- 80
2020-03-26 05:00:00 -0.5 4 Sudoeste 13 Sudoeste 0 -- -- 97
2020-03-26 04:00:00 -0.7 2 Este 9 Sudoeste 0 -- -- 97
2020-03-26 03:00:00 -0.4 3 Este 9 Nordeste 0 -- -- 96
2020-03-26 02:00:00 -0.3 2 Nordeste 6 Nordeste 0 -- -- 96
2020-03-26 01:00:00 -0.1 3 Noroeste 5 Noroeste 0 -- -- 96
2020-03-26 00:00:00 0.1 3 Noroeste 5 Noroeste 0 -- -- 95
2020-03-25 23:00:00 1.1 0 Calma 4 Oeste 0 -- -- 94
2020-03-25 22:00:00 2.4 3 Norte 9 Noroeste 0 -- -- 94
2020-03-25 21:00:00 3.7 4 Sudoeste 6 Norte 0 -- -- 92
2020-03-25 20:00:00 5 3 Oeste 10 Sur 0 -- -- 91
2020-03-25 19:00:00 5.8 8 Sudoeste 17 Sudoeste 0 -- -- 89
2020-03-25 18:00:00 6.9 3 Sudoeste 16 Sudoeste 0.4 -- -- 88
2020-03-25 17:00:00 7 8 Sur 18 Sur 1.4 -- -- 85
2020-03-25 16:00:00 8.6 9 Sur 16 Sudoeste 0 -- -- 74
2020-03-25 15:00:00 9.7 8 Sur 26 Sudoeste 0 -- -- 70
2020-03-25 14:00:00 9.7 12 Sudeste 28 Sur 0 -- -- 69
2020-03-25 13:00:00 10.4 8 Sur 22 Sur 0 -- -- 72
2020-03-25 12:00:00 8.3 6 Sudoeste 30 Oeste 0.2 -- -- 72
2020-03-25 11:00:00 8.7 7 Sudoeste 19 Sudoeste 0 -- -- 70
2020-03-25 10:00:00 6.8 5 Sur 10 Sur 0 -- -- 83
2020-03-25 09:00:00 4.8 3 Nordeste 14 Norte 0 -- -- 83
2020-03-25 08:00:00 4.3 8 Norte 13 Norte 0 -- -- 81
2020-03-25 07:00:00 4.6 5 Norte 10 Norte 0 -- -- 84
2020-03-25 06:00:00 5.1 2 Nordeste 6 Nordeste 0 -- -- 85
2020-03-25 05:00:00 5.2 5 Norte 10 Norte 0 -- -- 83
2020-03-25 04:00:00 5.5 3 Nordeste 6 Nordeste 0 -- -- 83
2020-03-25 03:00:00 5.7 0 Calma 6 Nordeste 0 -- -- 81
2020-03-25 02:00:00 6.1 5 Norte 10 Norte 0 -- -- 78
2020-03-25 01:00:00 6.3 7 Norte 11 Norte 0 -- -- 80
2020-03-25 00:00:00 7 5 Nordeste 9 Nordeste 0 -- -- 77
2020-03-24 23:00:00 7.2 7 Norte 15 Noroeste 0 -- -- 80
2020-03-24 22:00:00 6.6 0 Calma 6 Oeste 0 -- -- 89
2020-03-24 21:00:00 7.5 4 Oeste 6 Sudoeste 0 -- -- 84
2020-03-24 20:00:00 9.7 4 Oeste 14 Nordeste 0 -- -- 77
2020-03-24 19:00:00 11.5 6 Norte 22 Nordeste 0 -- -- 55
2020-03-24 18:00:00 12.9 8 Noroeste 22 Oeste 0 -- -- 55
2020-03-24 17:00:00 14.5 11 Oeste 21 Oeste 0 -- -- 63
2020-03-24 16:00:00 13.8 13 Oeste 22 Noroeste 0 -- -- 63
2020-03-24 15:00:00 13.6 8 Sudoeste 23 Sudoeste 0 -- -- 64
2020-03-24 14:00:00 13.2 8 Sudoeste 20 Oeste 0 -- -- 66
2020-03-24 13:00:00 11.7 6 Sudoeste 16 Sudoeste 0 -- -- 72
2020-03-24 12:00:00 11.7 8 Sur 17 Sudoeste 0 -- -- 74
2020-03-24 11:00:00 10.4 6 Sudeste 12 Sudeste 0 -- -- 81
2020-03-24 10:00:00 8.9 4 Sur 10 Sudoeste 0 -- -- 90
2020-03-24 09:00:00 7.4 3 Sudoeste 7 Sur 0 -- -- 95
2020-03-24 08:00:00 5.6 0 Calma 6 Norte 0 -- -- 97
2020-03-24 07:00:00 5.2 2 Nordeste 4 Oeste 0 -- -- 97
2020-03-24 06:00:00 5.1 3 Nordeste 5 Nordeste 0 -- -- 96
2020-03-24 05:00:00 4.8 3 Nordeste 5 Noroeste 0 -- -- 96
2020-03-24 04:00:00 5 0 Calma 5 Sur 0 -- -- 96
2020-03-24 03:00:00 4.8 2 Oeste 5 Oeste 0 -- -- 96
2020-03-24 02:00:00 4.6 0 Calma 5 Nordeste 0 -- -- 95
2020-03-24 01:00:00 5.1 0 Calma 9 Norte 0 -- -- 93
2020-03-24 00:00:00 6.1 0 Calma 10 Norte 0 -- -- 92
2020-03-23 23:00:00 7.2 3 Nordeste 8 Norte 0 -- -- 92
2020-03-23 22:00:00 7.7 3 Oeste 9 Oeste 0.4 -- -- 94
2020-03-23 21:00:00 8 3 Sur 11 Sur 0.8 -- -- 93
2020-03-23 20:00:00 8 4 Norte 9 Noroeste 0.2 -- -- 91
2020-03-23 19:00:00 8.8 5 Nordeste 7 Nordeste 1 -- -- 90
2020-03-23 18:00:00 9.7 2 Oeste 21 Sudeste 1.6 -- -- 83
2020-03-23 17:00:00 12.2 10 Norte 31 Sur 0 -- -- 63
2020-03-23 16:00:00 13.8 9 Sudoeste 24 Sudoeste 0 -- -- 59
2020-03-23 15:00:00 13.2 7 Sudoeste 23 Sur 0 -- -- 56
2020-03-23 14:00:00 12.9 11 Sur 23 Sur 0 -- -- 57
2020-03-23 13:00:00 12 7 Nordeste 17 Sudoeste 0 -- -- 65
2020-03-23 12:00:00 11.9 8 Sur 19 Sudoeste 0 -- -- 66
2020-03-23 11:00:00 10.9 6 Sudoeste 10 Sudoeste 0 -- -- 69
2020-03-23 10:00:00 9.2 3 Este 9 Este 0 -- -- 82
2020-03-23 09:00:00 7.7 2 Nordeste 5 Nordeste 0 -- -- 96
2020-03-23 08:00:00 6.4 0 Calma 3 Oeste 0 -- -- 96
2020-03-23 07:00:00 6.3 0 Calma 6 Sur 0 -- -- 95
2020-03-23 06:00:00 6.2 4 Nordeste 5 Nordeste 0 -- -- 95
2020-03-23 05:00:00 6.4 2 Oeste 4 Noroeste 0 -- -- 94
2020-03-23 04:00:00 6.4 2 Norte 5 Norte 0.2 -- -- 93
2020-03-23 03:00:00 6.5 3 Nordeste 7 Norte 0.2 -- -- 93
2020-03-23 02:00:00 6.7 2 Oeste 13 Oeste 1.2 -- -- 92
2020-03-23 01:00:00 6.9 5 Oeste 12 Noroeste 1.2 -- -- 93
2020-03-23 00:00:00 7.1 5 Norte 8 Nordeste 2 -- -- 91
2020-03-22 23:00:00 7.8 3 Sudeste 9 Oeste 1.4 -- -- 91
2020-03-22 22:00:00 8 3 Sudoeste 10 Noroeste 1 -- -- 91
2020-03-22 21:00:00 8.2 8 Noroeste 18 Noroeste 4.8 -- -- 89
2020-03-22 20:00:00 9.9 5 Nordeste 14 Sudoeste 1.4 -- -- 79
2020-03-22 19:00:00 12.3 6 Oeste 14 Sudoeste 0 -- -- 59
2020-03-22 18:00:00 13.2 5 Sudoeste 18 Sudoeste 0 -- -- 56
2020-03-22 17:00:00 13.4 9 Sudoeste 17 Sudoeste 0 -- -- 53
2020-03-22 16:00:00 14.1 5 Sudoeste 20 Sudoeste 0 -- -- 51
2020-03-22 15:00:00 14.7 9 Sur 25 Oeste 0 -- -- 47
2020-03-22 14:00:00 15.1 12 Sudoeste 31 Sudoeste 0 -- -- 49
2020-03-22 13:00:00 14.7 11 Sur 26 Sudoeste 0 -- -- 50
2020-03-22 12:00:00 14.1 9 Sudoeste 24 Sudoeste 0 -- -- 50
2020-03-22 11:00:00 12.9 9 Sudoeste 17 Sudoeste 0 -- -- 58
2020-03-22 10:00:00 10.5 4 Sur 9 Sur 0 -- -- 68
2020-03-22 09:00:00 7.1 2 Sudeste 5 Este 0 -- -- 83
2020-03-22 08:00:00 4.1 0 Calma 10 Noroeste 0 -- -- 94
2020-03-22 07:00:00 3.9 3 Sudeste 6 Sudoeste 0 -- -- 92
2020-03-22 06:00:00 4.4 5 Sudoeste 7 Sudoeste 0 -- -- 91
2020-03-22 05:00:00 5.3 2 Sudoeste 5 Oeste 0 -- -- 89
2020-03-22 04:00:00 5.7 0 Calma 6 Oeste 0 -- -- 88
2020-03-22 03:00:00 5.8 2 Sur 6 Nordeste 0 -- -- 89
2020-03-22 02:00:00 5.8 3 Noroeste 6 Sudoeste 0 -- -- 87
2020-03-22 01:00:00 5.8 0 Calma 5 Noroeste 0 -- -- 88
2020-03-22 00:00:00 5.4 0 Calma 4 Nordeste 0 -- -- 86
2020-03-21 23:00:00 5.6 3 Norte 8 Nordeste 0 -- -- 85
2020-03-21 22:00:00 6.6 0 Calma 4 Sudoeste 0 -- -- 82
2020-03-21 21:00:00 7.6 2 Nordeste 4 Oeste 0 -- -- 76
2020-03-21 20:00:00 9.5 2 Sudoeste 8 Oeste 0 -- -- 69
2020-03-21 19:00:00 11.8 5 Sudoeste 17 Sudoeste 0 -- -- 58
2020-03-21 18:00:00 14 11 Sudoeste 22 Sudoeste 0 -- -- 52
2020-03-21 17:00:00 15.6 10 Sudoeste 21 Sudoeste 0 -- -- 45
2020-03-21 16:00:00 15.5 8 Sur 22 Sur 0 -- -- 45
2020-03-21 15:00:00 15.5 8 Sur 21 Sudoeste 0 -- -- 45
2020-03-21 14:00:00 15.2 9 Sudoeste 22 Sur 0 -- -- 46
2020-03-21 13:00:00 14.7 9 Sudoeste 22 Sur 0 -- -- 49
2020-03-21 12:00:00 13.6 8 Sudoeste 18 Sudoeste 0 -- -- 49
2020-03-21 11:00:00 11.3 4 Sur 11 Sudoeste 0 -- -- 64
2020-03-21 10:00:00 9 3 Sur 7 Este 0 -- -- 73
2020-03-21 09:00:00 5.6 3 Este 10 Nordeste 0 -- -- 97
2020-03-21 08:00:00 2.8 2 Nordeste 5 Nordeste 0 -- -- 97
2020-03-21 07:00:00 1.9 0 Calma 5 Sur 0 -- -- 96
2020-03-21 06:00:00 1.3 0 Calma 4 Sudoeste 0 -- -- 96
2020-03-21 05:00:00 0.6 3 Nordeste 5 Nordeste 0 -- -- 95
2020-03-21 04:00:00 1.3 3 Norte 4 Noroeste 0 -- -- 94
2020-03-21 03:00:00 1.9 0 Calma 4 Sudoeste 0 -- -- 93
2020-03-21 02:00:00 2.7 0 Calma 3 Sur 0 -- -- 92
2020-03-21 01:00:00 3.3 2 Sudoeste 4 Sudoeste 0 -- -- 92
2020-03-21 00:00:00 4 0 Calma 2 Oeste 0 -- -- 91
2020-03-20 23:00:00 4.8 0 Calma 6 Sur 0 -- -- 89
2020-03-20 22:00:00 5.8 4 Norte 7 Norte 0 -- -- 88
2020-03-20 21:00:00 7 0 Calma 4 Sudoeste 0 -- -- 83
2020-03-20 20:00:00 8.3 4 Nordeste 7 Nordeste 0 -- -- 78
2020-03-20 19:00:00 11 3 Sudoeste 15 Sudoeste 0 -- -- 66
2020-03-20 18:00:00 12.9 7 Sudoeste 15 Sudoeste 0 -- -- 59
2020-03-20 17:00:00 13.9 8 Sudoeste 26 Sudoeste 0 -- -- 56
2020-03-20 16:00:00 14.6 13 Sudoeste 30 Sudoeste 0 -- -- 54
2020-03-20 15:00:00 15.5 14 Sudoeste 38 Sudoeste 0 -- -- 47
2020-03-20 14:00:00 15.1 14 Sudoeste 35 Sudoeste 0 -- -- 46
2020-03-20 13:00:00 15.1 14 Sudoeste 31 Sudoeste 0 -- -- 49
2020-03-20 12:00:00 14.3 11 Sudoeste 25 Oeste 0 -- -- 49
2020-03-20 11:00:00 12.3 9 Sudoeste 18 Sudoeste 0 -- -- 57
2020-03-20 10:00:00 8.1 3 Sudeste 6 Este 0 -- -- 91
2020-03-20 09:00:00 4.3 2 Este 5 Sudeste 0 -- -- 97
2020-03-20 08:00:00 2.1 0 Calma 4 Nordeste 0 -- -- 97
2020-03-20 07:00:00 2 0 Calma 4 Nordeste 0 -- -- 95
2020-03-20 06:00:00 2.7 0 Calma 3 Noroeste 0 -- -- 95
2020-03-20 05:00:00 3.3 0 Calma 5 Este 0 -- -- 94
2020-03-20 04:00:00 3.9 0 Calma 4 Sur 0 -- -- 94
2020-03-20 03:00:00 4.5 0 Calma 4 Sudoeste 0 -- -- 94
2020-03-20 02:00:00 5 3 Sudoeste 6 Sudoeste 0 -- -- 93
2020-03-20 01:00:00 5.4 0 Calma 3 Este 0 -- -- 92
2020-03-20 00:00:00 5.9 0 Calma 6 Norte 0 -- -- 92
2020-03-19 23:00:00 6.6 0 Calma 4 Nordeste 0 -- -- 90
2020-03-19 22:00:00 8 2 Sudoeste 4 Sudoeste 0 -- -- 86
2020-03-19 21:00:00 9.4 0 Calma 5 Sur 0 -- -- 83
2020-03-19 20:00:00 10.8 0 Calma 5 Oeste 0 -- -- 80
2020-03-19 19:00:00 12.3 5 Oeste 10 Sudoeste 0 -- -- 72
2020-03-19 18:00:00 14.3 6 Sudoeste 24 Sudoeste 0 -- -- 62
2020-03-19 17:00:00 15.6 10 Sudoeste 25 Sudoeste 0 -- -- 60
2020-03-19 16:00:00 16.8 13 Sudoeste 30 Oeste 0 -- -- 52
2020-03-19 15:00:00 17.6 13 Sudoeste 32 Sudoeste 0 -- -- 51
2020-03-19 14:00:00 17.1 6 Sur 22 Sur 0 -- -- 54
2020-03-19 13:00:00 16.4 8 Sur 19 Sur 0 -- -- 55
2020-03-19 12:00:00 16.4 10 Sur 24 Sudoeste 0 -- -- 57
2020-03-19 11:00:00 14.7 8 Sudoeste 12 Sudoeste 0 -- -- 67
2020-03-19 10:00:00 10.7 2 Este 4 Este 0 -- -- 87
2020-03-19 09:00:00 6.8 2 Nordeste 5 Este 0 -- -- 98
2020-03-19 08:00:00 5 0 Calma 5 Nordeste 0 -- -- 97
2020-03-19 07:00:00 5.1 0 Calma 3 Sudoeste 0 -- -- 96
2020-03-19 06:00:00 5.4 0 Calma 5 Noroeste 0 -- -- 96
2020-03-19 05:00:00 5.5 2 Oeste 5 Noroeste 0 -- -- 97
2020-03-19 04:00:00 5.2 0 Calma 4 Oeste 0 -- -- 96
2020-03-19 03:00:00 5 0 Calma 4 Este 0 -- -- 96
2020-03-19 02:00:00 5.1 3 Sudoeste 4 Sudoeste 0 -- -- 95
2020-03-19 01:00:00 5.5 0 Calma 5 Noroeste 0 -- -- 94
2020-03-19 00:00:00 6.6 2 Oeste 4 Oeste 0 -- -- 94
2020-03-18 23:00:00 7.2 0 Calma 2 Este 0 -- -- 93
2020-03-18 22:00:00 8.2 0 Calma 4 Nordeste 0 -- -- 91
2020-03-18 21:00:00 9.1 2 Sudoeste 3 Sudoeste 0 -- -- 88
2020-03-18 20:00:00 10.4 0 Calma 5 Este 0 -- -- 83
2020-03-18 19:00:00 12.1 3 Nordeste 6 Oeste 0 -- -- 78
2020-03-18 18:00:00 14.4 2 Sur 12 Sur 0 -- -- 64
2020-03-18 17:00:00 15.5 8 Sudoeste 13 Sudoeste 0 -- -- 61
2020-03-18 16:00:00 15.7 4 Sur 10 Sudoeste 0 -- -- 64
2020-03-18 15:00:00 15.4 8 Sur 18 Sudoeste 0 -- -- 65
2020-03-18 14:00:00 15.5 8 Sudoeste 13 Sudoeste 0 -- -- 65
2020-03-18 13:00:00 14.9 7 Sur 13 Sur 0 -- -- 67
2020-03-18 12:00:00 12.2 3 Sur 6 Este 0 -- -- 74
2020-03-18 11:00:00 8.2 0 Calma 4 Este 0 -- -- 98
2020-03-18 10:00:00 6 0 Calma 4 Este 0 -- -- 98
2020-03-18 09:00:00 4.3 2 Oeste 4 Nordeste 0 -- -- 98
2020-03-18 08:00:00 3.5 0 Calma 2 Oeste 0 -- -- 97
2020-03-18 07:00:00 3.6 0 Calma 4 Noroeste 0 -- -- 97
2020-03-18 06:00:00 3.7 0 Calma 3 Noroeste 0 -- -- 97
2020-03-18 05:00:00 4.2 0 Calma 5 Nordeste 0 -- -- 96
2020-03-18 04:00:00 4.6 0 Calma 5 Norte 0 -- -- 96
2020-03-18 03:00:00 5 2 Nordeste 4 Sudoeste 0 -- -- 95
2020-03-18 02:00:00 5.7 2 Sudoeste 4 Sudoeste 0 -- -- 95
2020-03-18 01:00:00 6.5 2 Sudoeste 6 Noroeste 0 -- -- 95
2020-03-18 00:00:00 7.1 0 Calma 4 Noroeste 0 -- -- 94
2020-03-17 23:00:00 7.6 0 Calma 9 Norte 0 -- -- 94
2020-03-17 22:00:00 7.9 3 Nordeste 5 Nordeste 0 -- -- 93
2020-03-17 21:00:00 8.8 3 Oeste 4 Nordeste 0 -- -- 92
2020-03-17 20:00:00 9.8 0 Calma 4 Oeste 0 -- -- 88
2020-03-17 19:00:00 11.4 0 Calma 4 Sur 0 -- -- 83
2020-03-17 18:00:00 12.3 2 Sudoeste 6 Sur 0 -- -- 79
2020-03-17 17:00:00 12.2 3 Nordeste 5 Nordeste 0 -- -- 77
2020-03-17 16:00:00 11.1 0 Calma 4 Sur 0 -- -- 85
2020-03-17 15:00:00 10.7 0 Calma 4 Noroeste 0 -- -- 84
2020-03-17 14:00:00 10.3 2 Nordeste 5 Sudeste 0 -- -- 83
2020-03-17 13:00:00 9.6 3 Este 5 Nordeste 0 -- -- 86
2020-03-17 12:00:00 8.3 2 Oeste 5 Sudeste 0 -- -- 90
2020-03-17 11:00:00 7.4 3 Oeste 6 Nordeste 0 -- -- 94
2020-03-17 10:00:00 6.8 0 Calma 3 Nordeste 0 -- -- 95
2020-03-17 09:00:00 6.5 0 Calma 5 Este 0 -- -- 95
2020-03-17 08:00:00 6.3 4 Noroeste 7 Sudoeste 0 -- -- 95
2020-03-17 07:00:00 6.1 4 Sudoeste 8 Sudoeste 0 -- -- 95
2020-03-17 06:00:00 6.1 3 Oeste 5 Oeste 0 -- -- 95
2020-03-17 05:00:00 5.9 3 Oeste 6 Nordeste 0 -- -- 94
2020-03-17 04:00:00 5.9 0 Calma 6 Noroeste 0 -- -- 93
2020-03-17 03:00:00 6 0 Calma 4 Este 0 -- -- 93
2020-03-17 02:00:00 6 0 Calma 5 Noroeste 0 -- -- 92
2020-03-17 01:00:00 5.8 0 Calma 6 Nordeste 0 -- -- 92
2020-03-17 00:00:00 6.1 3 Noroeste 15 Norte 0 -- -- 88
2020-03-16 23:00:00 6.5 5 Norte 13 Nordeste 0 -- -- 83
2020-03-16 22:00:00 6.9 5 Nordeste 17 Norte 0 -- -- 82
2020-03-16 21:00:00 7.6 7 Nordeste 14 Nordeste 0 -- -- 76
2020-03-16 20:00:00 7.9 6 Norte 13 Norte 0 -- -- 77
2020-03-16 19:00:00 7.9 3 Nordeste 8 Nordeste 0 -- -- 86
2020-03-16 18:00:00 8.3 2 Sur 10 Sudeste 0 -- -- 88
2020-03-16 17:00:00 8.4 0 Calma 8 Noroeste 0 -- -- 86
2020-03-16 16:00:00 8.3 5 Norte 11 Noroeste 0.2 -- -- 84
2020-03-16 15:00:00 7.4 4 Norte 11 Nordeste 0 -- -- 82
2020-03-16 14:00:00 7.4 3 Norte 7 Noroeste 0 -- -- 85
2020-03-16 13:00:00 7 2 Este 5 Nordeste 0 -- -- 92
2020-03-16 12:00:00 6.1 5 Nordeste 7 Norte 0 -- -- 93
2020-03-16 11:00:00 5.6 3 Oeste 11 Noroeste 0.4 -- -- 92
2020-03-16 10:00:00 5.1 5 Norte 13 Norte 0.4 -- -- 90
2020-03-16 09:00:00 4.6 5 Norte 16 Nordeste 1.2 -- -- 90
2020-03-16 08:00:00 5.2 6 Norte 13 Norte 2.6 -- -- 92
2020-03-16 07:00:00 6 8 Sudoeste 23 Sudoeste 3 -- -- 86
2020-03-16 06:00:00 6.6 6 Sur 20 Sudeste 3.6 -- -- 85
2020-03-16 05:00:00 6.5 5 Sudoeste 11 Nordeste 4 -- -- 93
2020-03-16 04:00:00 6.9 4 Nordeste 25 Sudeste 3.4 -- -- 90
2020-03-16 03:00:00 7.5 13 Sur 30 Sudoeste 6.4 -- -- 90
2020-03-16 02:00:00 7.2 10 Sudoeste 19 Sur 5.4 -- -- 94
2020-03-16 01:00:00 5.8 8 Norte 17 Oeste 4.6 -- -- 92
2020-03-16 00:00:00 5.7 9 Norte 19 Nordeste 8.6 -- -- 89
2020-03-15 23:00:00 7.6 5 Nordeste 52 Noroeste 7.4 -- -- 85
2020-03-15 22:00:00 11.5 20 Sudeste 42 Sudeste 0 -- -- 71
2020-03-15 21:00:00 11.1 12 Sur 31 Sur 0.2 -- -- 78
2020-03-15 20:00:00 10.7 8 Sur 27 Sudoeste 0.8 -- -- 84
2020-03-15 19:00:00 10.2 6 Noroeste 14 Oeste 0.2 -- -- 89
2020-03-15 18:00:00 10.9 5 Nordeste 45 Sudoeste 1 -- -- 84
2020-03-15 17:00:00 13.9 32 Sudoeste 73 Sudoeste 2.2 -- -- 66
2020-03-15 16:00:00 16.4 10 Sur 24 Sudeste 0 -- -- 52
2020-03-15 15:00:00 16.8 8 Sur 26 Sur 0 -- -- 47
2020-03-15 14:00:00 17.2 13 Sudoeste 31 Sudoeste 0 -- -- 42
2020-03-15 13:00:00 17.9 12 Sur 27 Sudoeste 0 -- -- 38
2020-03-15 12:00:00 16.6 16 Sudoeste 26 Sudoeste 0 -- -- 37
2020-03-15 11:00:00 12.6 8 Sudoeste 17 Sur 0 -- -- 51
2020-03-15 10:00:00 7.4 3 Este 5 Este 0 -- -- 69
2020-03-15 09:00:00 2.5 0 Calma 4 Nordeste 0 -- -- 90
2020-03-15 08:00:00 -0.7 0 Calma 4 Sudoeste 0 -- -- 92
2020-03-15 07:00:00 -0.7 0 Calma 3 Noroeste 0 -- -- 92
2020-03-15 06:00:00 -0.5 0 Calma 4 Sudoeste 0 -- -- 92
2020-03-15 05:00:00 -0.2 2 Sur 4 Oeste 0 -- -- 91
2020-03-15 04:00:00 0.2 0 Calma 4 Sudoeste 0 -- -- 90
2020-03-15 03:00:00 0.7 0 Calma 4 Sudoeste 0 -- -- 90
2020-03-15 02:00:00 1.1 2 Sur 5 Nordeste 0 -- -- 89
2020-03-15 01:00:00 2.1 2 Sudoeste 4 Sudoeste 0 -- -- 86
2020-03-15 00:00:00 3 3 Nordeste 5 Sur 0 -- -- 85
2020-03-14 23:00:00 4 2 Sur 4 Sudoeste 0 -- -- 79
2020-03-14 22:00:00 5.2 0 Calma 5 Sur 0 -- -- 78
2020-03-14 21:00:00 6.9 0 Calma 4 Nordeste 0 -- -- 71
2020-03-14 20:00:00 9 0 Calma 13 Oeste 0 -- -- 63
2020-03-14 19:00:00 12.2 6 Oeste 22 Oeste 0 -- -- 50
2020-03-14 18:00:00 14.6 12 Oeste 24 Sudoeste 0 -- -- 42
2020-03-14 17:00:00 16.5 8 Oeste 21 Oeste 0 -- -- 38
2020-03-14 16:00:00 16.9 9 Oeste 26 Sudoeste 0 -- -- 34
2020-03-14 15:00:00 16.8 8 Oeste 26 Sudoeste 0 -- -- 35
2020-03-14 14:00:00 16 12 Oeste 22 Sudoeste 0 -- -- 38
2020-03-14 13:00:00 14.9 6 Sur 18 Sur 0 -- -- 49
2020-03-14 12:00:00 13.1 7 Sur 15 Sudeste 0 -- -- 58
2020-03-14 11:00:00 10.1 6 Sur 12 Sur 0 -- -- 66
2020-03-14 10:00:00 6.4 5 Sudeste 8 Sudeste 0 -- -- 97
2020-03-14 09:00:00 3.7 2 Nordeste 5 Nordeste 0 -- -- 97
2020-03-14 08:00:00 2.7 0 Calma 5 Nordeste 0 -- -- 96
2020-03-14 07:00:00 2.7 3 Nordeste 6 Noroeste 0 -- -- 96
2020-03-14 06:00:00 3.1 2 Nordeste 4 Nordeste 0 -- -- 95
2020-03-14 05:00:00 3.3 0 Calma 5 Noroeste 0 -- -- 95
2020-03-14 04:00:00 3.3 0 Calma 3 Este 0 -- -- 94
2020-03-14 03:00:00 4 2 Oeste 4 Oeste 0 -- -- 92
2020-03-14 02:00:00 5.1 0 Calma 5 Noroeste 0 -- -- 91
2020-03-14 01:00:00 6.4 0 Calma 5 Sudoeste 0 -- -- 88
2020-03-14 00:00:00 7.3 0 Calma 8 Nordeste 0 -- -- 86
2020-03-13 23:00:00 7.2 0 Calma 6 Noroeste 0 -- -- 85
2020-03-13 22:00:00 8.3 0 Calma 4 Nordeste 0 -- -- 80
2020-03-13 21:00:00 8.9 0 Calma 4 Sudeste 0 -- -- 78
2020-03-13 20:00:00 9.1 3 Sudeste 17 Oeste 0 -- -- 77
2020-03-13 19:00:00 9.5 10 Oeste 19 Noroeste 0 -- -- 75
2020-03-13 18:00:00 10.4 12 Oeste 19 Oeste 0 -- -- 72
2020-03-13 17:00:00 11.3 11 Oeste 19 Oeste 0 -- -- 70
2020-03-13 16:00:00 12 13 Oeste 19 Noroeste 0 -- -- 68
2020-03-13 15:00:00 13 3 Oeste 8 Sudoeste 0 -- -- 65
2020-03-13 14:00:00 12.1 3 Sur 10 Noroeste 0 -- -- 67
2020-03-13 13:00:00 11.6 4 Sudeste 9 Sudeste 0 -- -- 71
2020-03-13 12:00:00 11 5 Sudoeste 13 Sudoeste 0 -- -- 69
2020-03-13 11:00:00 10.6 3 Sudoeste 13 Sudoeste 0 -- -- 72
2020-03-13 10:00:00 9.7 8 Sudoeste 17 Sudoeste 0 -- -- 78
2020-03-13 09:00:00 9 3 Sur 14 Nordeste 0 -- -- 75
2020-03-13 08:00:00 8.2 5 Oeste 28 Nordeste 0 -- -- 81
2020-03-13 07:00:00 8.9 7 Este 29 Norte 0 -- -- 75
2020-03-13 06:00:00 7.8 6 Sur 13 Sur 0 -- -- 88
2020-03-13 05:00:00 8.5 4 Sudoeste 15 Norte 0 -- -- 85
2020-03-13 04:00:00 9 4 Sur 10 Norte 0 -- -- 83
2020-03-13 03:00:00 9.5 3 Nordeste 9 Nordeste 0 -- -- 83
2020-03-13 02:00:00 10.7 10 Noroeste 27 Oeste 0 -- -- 78
2020-03-13 01:00:00 12.8 11 Nordeste 32 Nordeste 0 -- -- 63
2020-03-13 00:00:00 13.2 12 Norte 31 Noroeste 0 -- -- 60
2020-03-12 23:00:00 10.7 23 Noroeste 33 Oeste 0 -- -- 75
2020-03-12 22:00:00 11.4 9 Oeste 22 Oeste 0 -- -- 74
2020-03-12 21:00:00 12.5 0 Calma 13 Noroeste 0 -- -- 72
2020-03-12 20:00:00 14.1 9 Noroeste 24 Oeste 0 -- -- 70
2020-03-12 19:00:00 15.8 8 Noroeste 30 Noroeste 0 -- -- 65
2020-03-12 18:00:00 19.4 16 Oeste 27 Oeste 0 -- -- 55
2020-03-12 17:00:00 22.4 4 Sur 22 Sur 0 -- -- 39
2020-03-12 16:00:00 23.2 8 Sur 19 Sudoeste 0 -- -- 37
2020-03-12 15:00:00 22.9 7 Sur 24 Sudoeste 0 -- -- 38
2020-03-12 14:00:00 23.3 9 Sur 23 Sudoeste 0 -- -- 32
2020-03-12 13:00:00 23 6 Sur 22 Sudoeste 0 -- -- 36
2020-03-12 12:00:00 21.5 6 Sudoeste 13 Sudoeste 0 -- -- 38
2020-03-12 11:00:00 16.6 6 Nordeste 8 Nordeste 0 -- -- 56
2020-03-12 10:00:00 11.6 3 Sudeste 5 Este 0 -- -- 68
2020-03-12 09:00:00 7.1 0 Calma 2 Noroeste 0 -- -- 83
2020-03-12 08:00:00 5.5 0 Calma 3 Sudoeste 0 -- -- 84
2020-03-12 07:00:00 5.5 0 Calma 4 Este 0 -- -- 83
2020-03-12 06:00:00 5.7 0 Calma 10 Nordeste 0 -- -- 82
2020-03-12 05:00:00 5.6 4 Noroeste 8 Oeste 0 -- -- 81
2020-03-12 04:00:00 5.8 2 Este 6 Noroeste 0 -- -- 78
2020-03-12 03:00:00 6.2 0 Calma 5 Nordeste 0 -- -- 77
2020-03-12 02:00:00 6.9 0 Calma 4 Este 0 -- -- 70
2020-03-12 01:00:00 7.1 0 Calma 8 Nordeste 0 -- -- 72
2020-03-12 00:00:00 7.1 2 Oeste 6 Noroeste 0 -- -- 72
2020-03-11 23:00:00 7.6 3 Oeste 8 Sudoeste 0 -- -- 65
2020-03-11 22:00:00 8.4 2 Sur 7 Nordeste 0 -- -- 62
2020-03-11 21:00:00 10.3 0 Calma 8 Norte 0 -- -- 51
2020-03-11 20:00:00 12.8 2 Este 10 Nordeste 0 -- -- 46
2020-03-11 19:00:00 16.1 0 Calma 9 Oeste 0 -- -- 39
2020-03-11 18:00:00 20.9 6 Oeste 16 Noroeste 0 -- -- 21
2020-03-11 17:00:00 22.8 5 Sudoeste 16 Noroeste 0 -- -- 29
2020-03-11 16:00:00 22.8 7 Oeste 20 Sur 0 -- -- 27
2020-03-11 15:00:00 22.7 9 Sur 17 Sudoeste 0 -- -- 33
2020-03-11 14:00:00 22.2 5 Sur 15 Sudoeste 0 -- -- 33
2020-03-11 13:00:00 20.6 5 Sur 11 Sur 0 -- -- 35
2020-03-11 12:00:00 18.9 8 Sudoeste 13 Sudoeste 0 -- -- 39
2020-03-11 11:00:00 14.3 3 Sur 7 Este 0 -- -- 45
2020-03-11 10:00:00 9.4 2 Nordeste 6 Nordeste 0 -- -- 57
2020-03-11 09:00:00 5 2 Sudeste 5 Este 0 -- -- 71
2020-03-11 08:00:00 1.2 0 Calma 5 Este 0 -- -- 79
2020-03-11 07:00:00 2 0 Calma 6 Nordeste 0 -- -- 75
2020-03-11 06:00:00 2.3 0 Calma 6 Oeste 0 -- -- 71
2020-03-11 05:00:00 3.1 0 Calma 5 Oeste 0 -- -- 66
2020-03-11 04:00:00 4 4 Sudoeste 12 Sudoeste 0 -- -- 61
2020-03-11 03:00:00 5.3 4 Sudoeste 13 Sudoeste 0 -- -- 53
2020-03-11 02:00:00 6.6 5 Sudoeste 14 Sudoeste 0 -- -- 46
2020-03-11 01:00:00 8.8 6 Sudoeste 19 Noroeste 0 -- -- 40
2020-03-11 00:00:00 9.2 4 Sur 11 Noroeste 0 -- -- 34